Terminal Aerodrome Forecast
Issued by NWS Huntsville, AL

Home | Current Version | Previous Version | Text Only | Print | Product List | Glossary On
Versions: 1 2 3 4 5 6 7 8 9 10 11 12 13 14 15 16 17 18 19 20 21 22 23 24 25 26 27 28 29 30 31 32
000
FTUS44 KHUN 260520
TAFMSL
TAF
KMSL 260520Z 2606/2706 28010KT P6SM SCT015 BKN025
     FM260900 32010KT 5SM -RASN BR OVC015
     FM261100 32015G25KT 5SM -SN BR OVC020
     FM261400 32010G20KT P6SM OVC030
     FM261900 32010KT P6SM BKN040
     FM270000 VRB03KT P6SM BKN050=

USA.gov is the U.S. government's official web portal to all federal, state and local government web resources and services.